createdAt,value
2023-03-05T00:02:06.926Z,2.03
2023-03-05T00:04:33.864Z,1.55
2023-03-05T00:07:00.521Z,1.77
2023-03-05T00:09:27.293Z,1.88
2023-03-05T00:11:53.959Z,1.48
2023-03-05T00:14:20.563Z,2.03
2023-03-05T00:16:47.932Z,1.95
2023-03-05T00:19:14.665Z,1.85
2023-03-05T00:21:42.042Z,1.52
2023-03-05T00:24:13.414Z,2.00
2023-03-05T00:26:40.930Z,1.77
2023-03-05T00:29:09.447Z,1.45
2023-03-05T00:31:37.140Z,1.50
2023-03-05T00:34:06.928Z,1.50
2023-03-05T00:36:34.213Z,1.58
2023-03-05T00:39:01.625Z,1.83
2023-03-05T00:41:28.388Z,2.20
2023-03-05T00:43:55.157Z,2.28
2023-03-05T00:46:22.950Z,1.67
2023-03-05T00:48:50.096Z,1.67
2023-03-05T00:51:16.958Z,1.73
2023-03-05T00:53:43.650Z,1.88
2023-03-05T00:56:10.398Z,2.03
2023-03-05T00:58:37.331Z,1.88
2023-03-05T01:01:04.279Z,1.60
2023-03-05T01:03:32.385Z,1.73
2023-03-05T01:05:59.553Z,1.88
2023-03-05T01:08:26.599Z,1.40
2023-03-05T01:10:53.359Z,1.63
2023-03-05T01:13:20.057Z,1.55
2023-03-05T01:15:48.591Z,1.75
2023-03-05T01:18:15.527Z,1.38
2023-03-05T01:20:42.374Z,1.20
2023-03-05T01:23:09.534Z,1.27
2023-03-05T01:25:36.998Z,1.50
2023-03-05T01:28:04.257Z,1.25
2023-03-05T01:30:32.687Z,1.70
2023-03-05T01:32:59.462Z,1.77
2023-03-05T01:35:26.785Z,1.80
2023-03-05T01:37:54.089Z,1.40
2023-03-05T01:40:29.685Z,1.35
2023-03-05T01:43:13.830Z,1.35
2023-03-05T01:46:30.019Z,1.77
2023-03-05T01:49:10.188Z,1.40
2023-03-05T01:51:59.939Z,1.92
2023-03-05T01:54:35.153Z,1.58
2023-03-05T01:57:09.394Z,1.13
2023-03-05T01:59:39.085Z,1.83
2023-03-05T02:02:07.928Z,1.40
2023-03-05T02:04:58.626Z,1.70
2023-03-05T02:07:26.129Z,1.13
2023-03-05T02:09:52.955Z,1.40
2023-03-05T02:12:19.954Z,1.10
2023-03-05T02:14:49.479Z,1.75
2023-03-05T02:17:16.644Z,1.58
2023-03-05T02:20:08.790Z,1.33
2023-03-05T02:22:35.488Z,1.38
2023-03-05T02:25:02.629Z,1.00
2023-03-05T02:27:35.087Z,1.52
2023-03-05T02:30:02.986Z,1.20
2023-03-05T02:32:29.795Z,1.38
2023-03-05T02:34:56.712Z,1.58
2023-03-05T02:37:23.486Z,1.13
2023-03-05T02:39:51.651Z,1.02
2023-03-05T02:42:18.564Z,1.60
2023-03-05T02:44:45.375Z,1.50
2023-03-05T02:47:12.104Z,1.83
2023-03-05T02:49:38.993Z,1.63
2023-03-05T02:52:06.055Z,1.17
2023-03-05T02:54:32.762Z,1.50
2023-03-05T02:56:59.384Z,1.38
2023-03-05T02:59:27.069Z,1.60
2023-03-05T03:01:54.054Z,1.00
2023-03-05T03:04:20.788Z,1.50
2023-03-05T03:06:47.468Z,1.50
2023-03-05T03:09:14.063Z,1.70
2023-03-05T03:11:40.726Z,1.30
2023-03-05T03:14:10.213Z,1.75
2023-03-05T03:16:36.874Z,1.90
2023-03-05T03:19:03.712Z,1.98
2023-03-05T03:21:30.443Z,2.25
2023-03-05T03:23:57.166Z,2.08
2023-03-05T03:26:23.967Z,1.58
2023-03-05T03:28:50.663Z,1.70
2023-03-05T03:31:17.748Z,1.48
2023-03-05T03:33:44.643Z,1.90
2023-03-05T03:36:11.923Z,1.75
2023-03-05T03:38:38.660Z,1.40
2023-03-05T03:41:09.073Z,1.95
2023-03-05T03:43:36.483Z,1.48
2023-03-05T03:46:09.449Z,1.63
2023-03-05T03:48:36.255Z,1.88
2023-03-05T03:51:07.572Z,1.80
2023-03-05T03:53:34.350Z,2.22
2023-03-05T03:56:01.052Z,2.30
2023-03-05T03:58:27.664Z,1.83
2023-03-05T04:00:54.270Z,1.98
2023-03-05T04:03:20.920Z,1.40
2023-03-05T04:05:47.542Z,1.83
2023-03-05T04:08:14.174Z,1.63
2023-03-05T04:10:41.041Z,1.83
2023-03-05T04:13:07.874Z,1.63
2023-03-05T04:15:34.929Z,1.33
2023-03-05T04:18:01.626Z,1.65
2023-03-05T04:20:28.257Z,1.50
2023-03-05T04:22:54.904Z,1.52
2023-03-05T04:25:21.623Z,1.02
2023-03-05T04:27:50.937Z,1.75
2023-03-05T04:30:17.721Z,1.30
2023-03-05T04:32:44.345Z,1.88
2023-03-05T04:35:11.094Z,1.50
2023-03-05T04:37:37.950Z,1.60
2023-03-05T04:40:05.196Z,1.20
2023-03-05T04:42:31.997Z,1.25
2023-03-05T04:44:58.667Z,1.30
2023-03-05T04:47:25.537Z,1.55
2023-03-05T04:49:52.313Z,1.35
2023-03-05T04:52:18.935Z,1.10
2023-03-05T04:54:45.908Z,1.45
2023-03-05T04:57:12.600Z,1.17
2023-03-05T04:59:39.255Z,1.23
2023-03-05T05:02:06.086Z,1.25
2023-03-05T05:04:33.815Z,1.17
2023-03-05T05:07:00.464Z,1.23
2023-03-05T05:09:27.132Z,1.20
2023-03-05T05:11:54.341Z,1.23
2023-03-05T05:14:21.450Z,1.65
2023-03-05T05:16:48.098Z,1.73
2023-03-05T05:19:14.944Z,1.70
2023-03-05T05:21:41.783Z,1.65
2023-03-05T05:24:08.766Z,1.38
2023-03-05T05:26:35.594Z,1.52
2023-03-05T05:29:02.499Z,1.40
2023-03-05T05:31:29.163Z,1.80
2023-03-05T05:33:56.025Z,1.60
2023-03-05T05:36:22.872Z,1.33
2023-03-05T05:38:49.964Z,1.38
2023-03-05T05:41:18.704Z,2.45
2023-03-05T05:43:46.004Z,1.33
2023-03-05T05:46:15.937Z,1.77
2023-03-05T05:48:43.341Z,1.65
2023-03-05T05:51:15.816Z,0.95
2023-03-05T05:53:43.948Z,1.58
2023-03-05T05:56:12.206Z,1.67
2023-03-05T05:58:40.750Z,1.05
2023-03-05T06:01:18.200Z,1.30
2023-03-05T06:03:44.950Z,1.38
2023-03-05T06:06:13.333Z,1.30
2023-03-05T06:08:40.555Z,1.33
2023-03-05T06:11:07.706Z,0.85
2023-03-05T06:13:34.876Z,1.15
2023-03-05T06:16:04.450Z,1.00
2023-03-05T06:18:31.404Z,1.40
2023-03-05T06:21:06.609Z,1.17
2023-03-05T06:23:33.603Z,1.25
2023-03-05T06:26:02.978Z,1.30
2023-03-05T06:28:30.587Z,1.25
2023-03-05T06:31:08.519Z,1.73
2023-03-05T06:33:36.227Z,1.42
2023-03-05T06:36:08.558Z,1.50
2023-03-05T06:38:35.881Z,1.40
2023-03-05T06:41:09.262Z,1.17
2023-03-05T06:43:41.420Z,1.23
2023-03-05T06:46:09.486Z,1.08
2023-03-05T06:48:36.209Z,1.27
2023-03-05T06:51:03.172Z,1.20
2023-03-05T06:53:29.962Z,1.33
2023-03-05T06:55:56.720Z,1.20
2023-03-05T06:58:23.747Z,1.20
2023-03-05T07:00:50.573Z,1.23
2023-03-05T07:03:17.296Z,1.33
2023-03-05T07:05:44.483Z,1.17
2023-03-05T07:08:11.214Z,0.90
2023-03-05T07:10:40.202Z,1.23
2023-03-05T07:13:08.104Z,1.10
2023-03-05T07:15:37.835Z,1.40
2023-03-05T07:18:04.836Z,2.30
2023-03-05T07:20:33.756Z,1.65
2023-03-05T07:23:00.397Z,1.80
2023-03-05T07:25:27.108Z,1.90
2023-03-05T07:27:53.743Z,2.40
2023-03-05T07:30:20.702Z,2.33
2023-03-05T07:32:47.618Z,2.85
2023-03-05T07:35:14.632Z,4.47
2023-03-05T07:37:41.292Z,1.80
2023-03-05T07:40:10.252Z,1.67
2023-03-05T07:42:36.988Z,1.20
2023-03-05T07:45:13.143Z,1.60
2023-03-05T07:47:39.782Z,3.25
2023-03-05T07:50:06.991Z,1.20
2023-03-05T07:52:33.673Z,1.02
2023-03-05T07:55:00.355Z,1.27
2023-03-05T07:57:27.093Z,1.10
2023-03-05T07:59:54.085Z,1.10
2023-03-05T08:02:21.498Z,4.82
2023-03-05T08:04:48.240Z,5.05
2023-03-05T08:07:16.260Z,3.00
2023-03-05T08:09:43.051Z,1.85
2023-03-05T08:12:10.342Z,2.70
2023-03-05T08:14:37.838Z,1.30
2023-03-05T08:17:05.701Z,1.65
2023-03-05T08:19:32.984Z,1.50
2023-03-05T08:21:59.872Z,1.60
2023-03-05T08:24:29.600Z,1.40
2023-03-05T08:26:57.704Z,1.60
2023-03-05T08:29:27.247Z,1.92
2023-03-05T08:31:53.935Z,1.88
2023-03-05T08:34:21.457Z,1.45
2023-03-05T08:36:48.997Z,1.73
2023-03-05T08:39:15.911Z,1.50
2023-03-05T08:41:42.756Z,1.48
2023-03-05T08:44:09.727Z,1.40
2023-03-05T08:46:38.780Z,1.50
2023-03-05T08:49:07.226Z,1.98
2023-03-05T08:51:35.791Z,1.58
2023-03-05T08:54:06.759Z,2.00
2023-03-05T08:56:34.903Z,2.05
2023-03-05T08:59:02.953Z,2.28
2023-03-05T09:01:31.749Z,2.00
2023-03-05T09:03:59.761Z,1.80
2023-03-05T09:06:27.428Z,1.92
2023-03-05T09:08:54.953Z,1.73
2023-03-05T09:11:21.877Z,1.67
2023-03-05T09:13:48.689Z,1.60
2023-03-05T09:16:17.770Z,1.50
2023-03-05T09:18:44.929Z,1.58
2023-03-05T09:21:14.321Z,1.67
2023-03-05T09:23:41.418Z,1.52
2023-03-05T09:26:10.121Z,1.33
2023-03-05T09:28:36.765Z,1.40
2023-03-05T09:31:08.039Z,1.45
2023-03-05T09:33:35.755Z,2.10
2023-03-05T09:36:03.496Z,1.70
2023-03-05T09:38:30.164Z,1.73
2023-03-05T09:41:07.788Z,2.20
2023-03-05T09:43:47.002Z,1.67
2023-03-05T09:46:32.759Z,1.58
2023-03-05T09:49:14.135Z,1.30
2023-03-05T09:51:42.911Z,1.42
2023-03-05T09:54:23.124Z,1.63
2023-03-05T09:56:59.054Z,1.80
2023-03-05T09:59:31.775Z,1.65
2023-03-05T10:02:17.005Z,1.48
2023-03-05T10:04:59.747Z,1.08
2023-03-05T10:07:34.288Z,1.20
2023-03-05T10:10:02.778Z,0.70
2023-03-05T10:12:42.684Z,1.10
2023-03-05T10:15:14.415Z,0.82
2023-03-05T10:18:09.421Z,0.57
2023-03-05T10:20:42.555Z,0.93
2023-03-05T10:23:09.244Z,0.90
2023-03-05T10:26:13.981Z,0.90
2023-03-05T10:29:03.422Z,1.40
2023-03-05T10:31:44.528Z,1.10
2023-03-05T10:34:55.375Z,0.95
2023-03-05T10:37:57.196Z,1.20
2023-03-05T10:40:32.454Z,1.40
2023-03-05T10:42:59.385Z,1.08
2023-03-05T10:45:38.921Z,1.00
2023-03-05T10:48:27.335Z,0.82
2023-03-05T10:51:00.630Z,0.60
2023-03-05T10:53:33.839Z,0.73
2023-03-05T10:56:05.525Z,0.60
2023-03-05T10:58:32.807Z,0.90
2023-03-05T11:01:10.144Z,1.33
2023-03-05T11:03:53.583Z,1.20
2023-03-05T11:06:27.500Z,0.95
2023-03-05T11:08:54.172Z,0.88
2023-03-05T11:11:22.580Z,1.02
2023-03-05T11:14:02.228Z,1.17
2023-03-05T11:16:35.626Z,1.08
2023-03-05T11:19:24.391Z,0.95
2023-03-05T11:22:15.109Z,1.20
2023-03-05T11:24:42.720Z,1.00
2023-03-05T11:27:31.371Z,1.20
2023-03-05T11:29:59.272Z,0.70
2023-03-05T11:32:28.490Z,1.13
2023-03-05T11:34:56.187Z,0.70
2023-03-05T11:37:25.891Z,0.73
2023-03-05T11:40:10.672Z,1.00
2023-03-05T11:42:40.119Z,0.70
2023-03-05T11:45:14.291Z,0.88
2023-03-05T11:47:53.410Z,0.70
2023-03-05T11:50:23.606Z,1.10
2023-03-05T11:52:58.159Z,0.60
2023-03-05T11:55:27.844Z,0.63
2023-03-05T11:58:21.982Z,0.70
2023-03-05T12:00:48.639Z,0.60
2023-03-05T12:03:18.786Z,0.60
2023-03-05T12:05:50.032Z,0.63
2023-03-05T12:08:25.472Z,0.65
2023-03-05T12:10:53.024Z,0.77
2023-03-05T12:13:34.427Z,0.60
2023-03-05T12:16:39.355Z,0.60
2023-03-05T12:19:18.536Z,1.17
2023-03-05T12:21:50.118Z,1.10
2023-03-05T12:24:28.138Z,0.80
2023-03-05T12:27:04.275Z,1.10
2023-03-05T12:29:51.772Z,0.88
2023-03-05T12:32:33.932Z,0.45
2023-03-05T12:35:26.463Z,0.70
2023-03-05T12:37:53.088Z,0.50
2023-03-05T12:40:28.728Z,0.60
2023-03-05T12:43:04.254Z,0.77
2023-03-05T12:45:33.748Z,0.93
2023-03-05T12:48:00.349Z,0.73
2023-03-05T12:50:27.124Z,0.60
2023-03-05T12:53:07.360Z,0.80
2023-03-05T12:55:51.144Z,0.70
2023-03-05T12:58:30.732Z,0.60
2023-03-05T13:01:15.640Z,0.60
2023-03-05T13:03:54.350Z,0.85
2023-03-05T13:06:34.100Z,0.60
2023-03-05T13:09:24.985Z,0.70
2023-03-05T13:11:53.763Z,0.57
2023-03-05T13:14:23.465Z,0.63
2023-03-05T13:16:50.559Z,0.50
2023-03-05T13:19:17.970Z,0.70
2023-03-05T13:21:44.872Z,0.55
2023-03-05T13:24:19.781Z,0.70
2023-03-05T13:26:46.490Z,0.57
2023-03-05T13:29:17.070Z,0.50
2023-03-05T13:31:48.696Z,0.75
2023-03-05T13:34:24.560Z,0.47
2023-03-05T13:37:14.916Z,0.30
2023-03-05T13:39:47.907Z,0.90
2023-03-05T13:42:34.481Z,0.68
2023-03-05T13:45:04.767Z,0.52
2023-03-05T13:47:36.502Z,0.77
2023-03-05T13:50:08.677Z,0.65
2023-03-05T13:52:39.137Z,0.63
2023-03-05T13:55:16.863Z,0.47
2023-03-05T13:57:52.968Z,0.60
2023-03-05T14:00:36.595Z,0.47
2023-03-05T14:03:11.283Z,0.85
2023-03-05T14:05:44.452Z,0.60
2023-03-05T14:08:23.710Z,0.55
2023-03-05T14:10:51.371Z,0.70
2023-03-05T14:13:28.941Z,0.93
2023-03-05T14:16:10.928Z,0.70
2023-03-05T14:18:38.848Z,0.80
2023-03-05T14:21:08.914Z,0.65
2023-03-05T14:23:37.676Z,0.90
2023-03-05T14:26:28.625Z,1.10
2023-03-05T14:28:58.830Z,1.00
2023-03-05T14:31:26.986Z,0.90
2023-03-05T14:33:54.989Z,0.88
2023-03-05T14:36:26.805Z,0.80
2023-03-05T14:38:54.504Z,0.70
2023-03-05T14:41:38.841Z,1.00
2023-03-05T14:44:17.449Z,0.70
2023-03-05T14:46:48.945Z,0.88
2023-03-05T14:49:16.268Z,1.00
2023-03-05T14:51:45.387Z,0.70
2023-03-05T14:54:23.911Z,0.98
2023-03-05T14:56:51.133Z,0.82
2023-03-05T14:59:18.482Z,0.93
2023-03-05T15:01:45.180Z,1.05
2023-03-05T15:04:11.895Z,1.08
2023-03-05T15:06:41.175Z,1.05
2023-03-05T15:09:08.158Z,0.82
2023-03-05T15:11:35.090Z,0.60
2023-03-05T15:14:01.780Z,0.75
2023-03-05T15:16:28.425Z,1.38
2023-03-05T15:18:55.040Z,1.20
2023-03-05T15:21:21.646Z,1.58
2023-03-05T15:23:48.287Z,2.08
2023-03-05T15:26:15.800Z,1.70
2023-03-05T15:28:43.219Z,1.10
2023-03-05T15:31:10.939Z,1.00
2023-03-05T15:33:37.654Z,0.75
2023-03-05T15:36:04.844Z,0.70
2023-03-05T15:38:31.483Z,0.80
2023-03-05T15:41:00.590Z,0.90
2023-03-05T15:43:28.188Z,1.08
2023-03-05T15:45:54.893Z,1.08
2023-03-05T15:48:21.598Z,1.33
2023-03-05T15:50:48.250Z,1.65
2023-03-05T15:53:18.102Z,1.80
2023-03-05T15:55:45.863Z,2.30
2023-03-05T15:58:15.899Z,1.23
2023-03-05T16:00:42.964Z,1.30
2023-03-05T16:03:09.709Z,1.00
2023-03-05T16:05:37.319Z,1.40
2023-03-05T16:08:04.652Z,1.88
2023-03-05T16:10:31.776Z,1.70
2023-03-05T16:13:12.247Z,1.75
2023-03-05T16:15:40.997Z,1.48
2023-03-05T16:18:15.406Z,1.60
2023-03-05T16:20:42.178Z,2.10
2023-03-05T16:23:08.950Z,3.25
2023-03-05T16:25:36.667Z,2.75
2023-03-05T16:28:03.644Z,1.50
2023-03-05T16:30:30.534Z,2.75
2023-03-05T16:32:57.298Z,2.70
2023-03-05T16:35:24.029Z,2.50
2023-03-05T16:37:50.919Z,1.80
2023-03-05T16:40:17.667Z,2.53
2023-03-05T16:42:44.563Z,1.02
2023-03-05T16:45:12.237Z,1.10
2023-03-05T16:47:39.712Z,1.27
2023-03-05T16:50:08.628Z,4.90
2023-03-05T16:52:35.363Z,3.50
2023-03-05T16:55:02.072Z,5.55
2023-03-05T16:57:28.964Z,7.40
2023-03-05T16:59:56.733Z,6.45
2023-03-05T17:02:24.059Z,8.63
2023-03-05T17:04:50.811Z,4.47
2023-03-05T17:07:18.143Z,2.92
2023-03-05T17:09:45.751Z,2.40
2023-03-05T17:12:12.549Z,2.30
2023-03-05T17:14:39.865Z,1.70
2023-03-05T17:17:06.713Z,2.13
2023-03-05T17:19:33.425Z,3.05
2023-03-05T17:22:00.191Z,2.70
2023-03-05T17:24:26.880Z,2.45
2023-03-05T17:26:53.556Z,3.15
2023-03-05T17:29:21.326Z,2.47
2023-03-05T17:31:50.529Z,3.45
2023-03-05T17:34:18.439Z,2.78
2023-03-05T17:36:47.149Z,2.05
2023-03-05T17:39:13.777Z,2.00
2023-03-05T17:41:40.529Z,2.40
2023-03-05T17:44:07.327Z,1.92
2023-03-05T17:46:34.011Z,2.53
2023-03-05T17:49:00.719Z,2.00
2023-03-05T17:51:27.599Z,2.28
2023-03-05T17:53:54.529Z,3.15
2023-03-05T17:56:22.075Z,2.10
2023-03-05T17:58:49.830Z,2.58
2023-03-05T18:01:28.902Z,2.70
2023-03-05T18:03:55.970Z,2.83
2023-03-05T18:06:23.043Z,2.45
2023-03-05T18:08:49.831Z,3.28
2023-03-05T18:11:16.999Z,4.90
2023-03-05T18:13:43.891Z,4.22
2023-03-05T18:16:12.188Z,3.20
2023-03-05T18:18:38.848Z,2.88
2023-03-05T18:21:05.699Z,2.80
2023-03-05T18:23:32.372Z,2.78
2023-03-05T18:25:59.009Z,3.17
2023-03-05T18:28:25.918Z,3.15
2023-03-05T18:30:52.708Z,3.00
2023-03-05T18:33:22.679Z,3.20
2023-03-05T18:35:52.051Z,3.80
2023-03-05T18:38:20.725Z,3.45
2023-03-05T18:40:47.884Z,2.67
2023-03-05T18:43:14.574Z,3.10
2023-03-05T18:45:41.258Z,2.70
2023-03-05T18:48:07.890Z,2.95
2023-03-05T18:50:34.602Z,2.55
2023-03-05T18:53:01.314Z,3.55
2023-03-05T18:55:30.078Z,3.88
2023-03-05T18:57:57.602Z,4.35
2023-03-05T19:00:27.267Z,4.35
2023-03-05T19:02:54.899Z,4.22
2023-03-05T19:05:22.013Z,4.32
2023-03-05T19:07:49.074Z,5.20
2023-03-05T19:10:17.500Z,5.95
2023-03-05T19:12:57.769Z,5.75
2023-03-05T19:15:24.503Z,6.00
2023-03-05T19:17:51.442Z,5.72
2023-03-05T19:20:18.866Z,5.28
2023-03-05T19:22:45.555Z,3.97
2023-03-05T19:25:12.488Z,4.68
2023-03-05T19:27:39.462Z,3.72
2023-03-05T19:30:07.293Z,4.10
2023-03-05T19:32:34.253Z,3.35
2023-03-05T19:35:01.314Z,3.13
2023-03-05T19:37:28.136Z,4.43
2023-03-05T19:39:54.846Z,4.68
2023-03-05T19:42:21.536Z,4.68
2023-03-05T19:44:48.375Z,4.05
2023-03-05T19:47:15.048Z,2.95
2023-03-05T19:49:41.881Z,2.95
2023-03-05T19:52:08.636Z,2.33
2023-03-05T19:54:35.459Z,2.20
2023-03-05T19:57:02.337Z,2.03
2023-03-05T19:59:29.065Z,2.20
2023-03-05T20:01:57.239Z,1.60
2023-03-05T20:04:24.891Z,3.03
2023-03-05T20:06:51.916Z,1.90
2023-03-05T20:09:18.744Z,1.80
2023-03-05T20:11:46.412Z,1.52
2023-03-05T20:14:14.456Z,1.95
2023-03-05T20:16:43.053Z,2.13
2023-03-05T20:19:16.150Z,2.05
2023-03-05T20:21:42.942Z,2.42
2023-03-05T20:24:13.605Z,2.30
2023-03-05T20:26:41.849Z,1.92
2023-03-05T20:29:08.795Z,2.25
2023-03-05T20:31:37.114Z,1.90
2023-03-05T20:34:10.108Z,1.92
2023-03-05T20:36:37.263Z,1.70
2023-03-05T20:39:05.093Z,2.10
2023-03-05T20:41:33.175Z,1.58
2023-03-05T20:43:59.924Z,1.92
2023-03-05T20:46:32.780Z,1.80
2023-03-05T20:49:01.470Z,1.70
2023-03-05T20:51:36.719Z,1.73
2023-03-05T20:54:09.244Z,2.45
2023-03-05T20:56:36.243Z,2.78
2023-03-05T20:59:06.072Z,2.72
2023-03-05T21:01:34.828Z,2.42
2023-03-05T21:04:02.637Z,3.08
2023-03-05T21:06:30.615Z,2.78
2023-03-05T21:08:57.747Z,3.50
2023-03-05T21:11:24.917Z,4.07
2023-03-05T21:13:51.824Z,4.00
2023-03-05T21:16:22.535Z,3.70
2023-03-05T21:18:51.019Z,2.97
2023-03-05T21:21:17.875Z,3.03
2023-03-05T21:23:44.564Z,3.53
2023-03-05T21:26:12.578Z,3.17
2023-03-05T21:28:40.880Z,3.78
2023-03-05T21:31:10.434Z,7.45
2023-03-05T21:33:37.901Z,5.82
2023-03-05T21:36:05.146Z,3.13
2023-03-05T21:38:33.991Z,2.72
2023-03-05T21:41:01.940Z,2.20
2023-03-05T21:43:31.083Z,2.60
2023-03-05T21:46:00.453Z,2.30
2023-03-05T21:48:27.176Z,2.20
2023-03-05T21:50:55.169Z,2.40
2023-03-05T21:53:22.854Z,2.30
2023-03-05T21:56:02.552Z,2.40
2023-03-05T21:58:34.159Z,2.38
2023-03-05T22:01:01.224Z,2.45
2023-03-05T22:03:28.476Z,2.90
2023-03-05T22:05:56.115Z,3.08
2023-03-05T22:08:23.694Z,2.75
2023-03-05T22:10:50.414Z,2.60
2023-03-05T22:13:17.931Z,2.55
2023-03-05T22:15:56.217Z,2.60
2023-03-05T22:18:28.378Z,2.80
2023-03-05T22:20:56.110Z,2.75
2023-03-05T22:23:25.159Z,3.30
2023-03-05T22:25:59.868Z,3.67
2023-03-05T22:28:27.724Z,3.08
2023-03-05T22:30:54.584Z,2.88
2023-03-05T22:33:23.102Z,3.17
2023-03-05T22:35:50.425Z,3.03
2023-03-05T22:38:17.832Z,3.78
2023-03-05T22:40:46.271Z,3.10
2023-03-05T22:43:14.158Z,2.95
2023-03-05T22:45:41.079Z,3.33
2023-03-05T22:48:09.854Z,3.50
2023-03-05T22:50:41.144Z,3.75
2023-03-05T22:53:08.199Z,3.38
2023-03-05T22:55:38.617Z,3.30
2023-03-05T22:58:05.315Z,3.45
2023-03-05T23:00:33.000Z,3.53
2023-03-05T23:02:59.738Z,3.40
2023-03-05T23:05:26.426Z,3.70
2023-03-05T23:07:53.196Z,4.72
2023-03-05T23:10:25.604Z,3.90
2023-03-05T23:12:54.992Z,3.75
2023-03-05T23:15:30.963Z,3.40
2023-03-05T23:17:58.348Z,3.33
2023-03-05T23:20:28.575Z,3.83
2023-03-05T23:22:56.346Z,2.90
2023-03-05T23:25:25.744Z,4.00
2023-03-05T23:27:52.967Z,4.15
2023-03-05T23:30:30.387Z,4.53
2023-03-05T23:32:59.656Z,4.85
2023-03-05T23:35:35.393Z,4.65
2023-03-05T23:38:05.593Z,4.57
2023-03-05T23:40:47.414Z,4.47
2023-03-05T23:43:15.152Z,4.72
2023-03-05T23:45:43.875Z,4.70
2023-03-05T23:48:10.623Z,4.80
2023-03-05T23:50:40.656Z,5.15
2023-03-05T23:53:07.557Z,4.63
2023-03-05T23:55:44.690Z,5.00
2023-03-05T23:58:11.942Z,5.07
